sensor_id;sensor_type;location;lat;lon;timestamp;pressure;altitude;pressure_sealevel;temperature;humidity
18813;BME280;9534;51.140;6.296;2023-04-01T00:03:33;98452.00;;;9.73;100.00
18813;BME280;9534;51.140;6.296;2023-04-01T00:07:37;98447.09;;;9.75;100.00
18813;BME280;9534;51.140;6.296;2023-04-01T00:11:40;98438.91;;;9.75;100.00
18813;BME280;9534;51.140;6.296;2023-04-01T00:15:45;98438.91;;;9.75;100.00
18813;BME280;9534;51.140;6.296;2023-04-01T00:19:50;98438.41;;;9.78;100.00
18813;BME280;9534;51.140;6.296;2023-04-01T00:23:53;98437.88;;;9.81;100.00
18813;BME280;9534;51.140;6.296;2023-04-01T00:27:56;98442.78;;;9.79;100.00
18813;BME280;9534;51.140;6.296;2023-04-01T00:32:01;98439.81;;;9.81;100.00
18813;BME280;9534;51.140;6.296;2023-04-01T00:36:08;98436.22;;;9.80;100.00
18813;BME280;9534;51.140;6.296;2023-04-01T00:40:24;98427.47;;;9.78;100.00
18813;BME280;9534;51.140;6.296;2023-04-01T00:44:31;98438.09;;;9.75;100.00
18813;BME280;9534;51.140;6.296;2023-04-01T00:48:38;98422.84;;;9.79;100.00
18813;BME280;9534;51.140;6.296;2023-04-01T00:52:42;98432.94;;;9.78;100.00
18813;BME280;9534;51.140;6.296;2023-04-01T00:56:48;98436.75;;;9.77;100.00
18813;BME280;9534;51.140;6.296;2023-04-01T01:00:54;98417.06;;;9.75;100.00
18813;BME280;9534;51.140;6.296;2023-04-01T01:05:00;98434.59;;;9.79;100.00
18813;BME280;9534;51.140;6.296;2023-04-01T01:09:24;98409.75;;;9.81;100.00
18813;BME280;9534;51.140;6.296;2023-04-01T01:13:35;98414.38;;;9.80;100.00
18813;BME280;9534;51.140;6.296;2023-04-01T01:17:45;98421.50;;;9.81;100.00
18813;BME280;9534;51.140;6.296;2023-04-01T01:22:06;98401.19;;;9.72;100.00
18813;BME280;9534;51.140;6.296;2023-04-01T01:30:47;98395.72;;;9.72;100.00
18813;BME280;9534;51.140;6.296;2023-04-01T01:35:06;98405.00;;;9.71;100.00
18813;BME280;9534;51.140;6.296;2023-04-01T01:39:12;98408.19;;;9.63;100.00
18813;BME280;9534;51.140;6.296;2023-04-01T01:43:20;98410.88;;;9.58;100.00
18813;BME280;9534;51.140;6.296;2023-04-01T01:47:25;98417.94;;;9.54;100.00
18813;BME280;9534;51.140;6.296;2023-04-01T01:51:33;98413.56;;;9.53;100.00
18813;BME280;9534;51.140;6.296;2023-04-01T01:55:40;98414.06;;;9.50;100.00
18813;BME280;9534;51.140;6.296;2023-04-01T01:59:44;98434.25;;;9.49;100.00
18813;BME280;9534;51.140;6.296;2023-04-01T02:03:56;98427.16;;;9.48;100.00
18813;BME280;9534;51.140;6.296;2023-04-01T02:08:07;98477.94;;;9.49;100.00
18813;BME280;9534;51.140;6.296;2023-04-01T02:12:13;98446.53;;;9.47;100.00
18813;BME280;9534;51.140;6.296;2023-04-01T02:16:20;98444.59;;;9.42;100.00
18813;BME280;9534;51.140;6.296;2023-04-01T02:20:27;98447.31;;;9.42;100.00
18813;BME280;9534;51.140;6.296;2023-04-01T02:24:35;98451.94;;;9.42;100.00
18813;BME280;9534;51.140;6.296;2023-04-01T02:28:40;98454.97;;;9.45;100.00
18813;BME280;9534;51.140;6.296;2023-04-01T02:32:46;98452.22;;;9.40;100.00
18813;BME280;9534;51.140;6.296;2023-04-01T02:36:50;98470.75;;;9.38;100.00
18813;BME280;9534;51.140;6.296;2023-04-01T02:40:59;98452.72;;;9.37;100.00
18813;BME280;9534;51.140;6.296;2023-04-01T02:45:03;98470.75;;;9.38;100.00
18813;BME280;9534;51.140;6.296;2023-04-01T02:49:07;98460.41;;;9.40;100.00
18813;BME280;9534;51.140;6.296;2023-04-01T02:53:10;98465.59;;;9.42;100.00
18813;BME280;9534;51.140;6.296;2023-04-01T02:57:15;98460.13;;;9.42;100.00
18813;BME280;9534;51.140;6.296;2023-04-01T03:01:18;98466.41;;;9.42;100.00
18813;BME280;9534;51.140;6.296;2023-04-01T03:05:21;98469.44;;;9.46;100.00
18813;BME280;9534;51.140;6.296;2023-04-01T03:09:25;98474.63;;;9.47;100.00
18813;BME280;9534;51.140;6.296;2023-04-01T03:13:30;98477.13;;;9.49;100.00
18813;BME280;9534;51.140;6.296;2023-04-01T03:17:33;98481.75;;;9.48;100.00
18813;BME280;9534;51.140;6.296;2023-04-01T03:21:36;98494.31;;;9.49;100.00
18813;BME280;9534;51.140;6.296;2023-04-01T03:25:40;98482.84;;;9.47;100.00
18813;BME280;9534;51.140;6.296;2023-04-01T03:29:44;98488.84;;;9.49;100.00
18813;BME280;9534;51.140;6.296;2023-04-01T03:33:47;98477.94;;;9.49;100.00
18813;BME280;9534;51.140;6.296;2023-04-01T03:37:51;98480.66;;;9.49;100.00
18813;BME280;9534;51.140;6.296;2023-04-01T03:41:54;98483.91;;;9.46;100.00
18813;BME280;9534;51.140;6.296;2023-04-01T03:45:59;98493.19;;;9.45;100.00
18813;BME280;9534;51.140;6.296;2023-04-01T03:50:05;98488.81;;;9.44;100.00
18813;BME280;9534;51.140;6.296;2023-04-01T03:54:09;98484.44;;;9.43;100.00
18813;BME280;9534;51.140;6.296;2023-04-01T03:58:13;98498.63;;;9.45;100.00
18813;BME280;9534;51.140;6.296;2023-04-01T04:02:18;98484.75;;;9.47;100.00
18813;BME280;9534;51.140;6.296;2023-04-01T04:06:23;98500.28;;;9.46;100.00
18813;BME280;9534;51.140;6.296;2023-04-01T04:10:27;98491.28;;;9.46;100.00
18813;BME280;9534;51.140;6.296;2023-04-01T04:14:31;98495.41;;;9.48;100.00
18813;BME280;9534;51.140;6.296;2023-04-01T04:18:36;98510.19;;;9.52;100.00
18813;BME280;9534;51.140;6.296;2023-04-01T04:22:39;98508.53;;;9.51;100.00
18813;BME280;9534;51.140;6.296;2023-04-01T04:26:43;98509.03;;;9.48;100.00
18813;BME280;9534;51.140;6.296;2023-04-01T04:30:46;98505.50;;;9.48;100.00
18813;BME280;9534;51.140;6.296;2023-04-01T04:34:51;98519.97;;;9.48;100.00
18813;BME280;9534;51.140;6.296;2023-04-01T04:38:54;98524.03;;;9.46;100.00
18813;BME280;9534;51.140;6.296;2023-04-01T04:42:57;98511.19;;;9.41;100.00
18813;BME280;9534;51.140;6.296;2023-04-01T04:47:00;98514.72;;;9.42;100.00
18813;BME280;9534;51.140;6.296;2023-04-01T04:51:05;98527.56;;;9.41;100.00
18813;BME280;9534;51.140;6.296;2023-04-01T04:55:09;98527.56;;;9.41;100.00
18813;BME280;9534;51.140;6.296;2023-04-01T04:59:13;98529.13;;;9.37;100.00
18813;BME280;9534;51.140;6.296;2023-04-01T05:03:30;98538.41;;;9.36;100.00
18813;BME280;9534;51.140;6.296;2023-04-01T05:07:35;98530.72;;;9.33;100.00
18813;BME280;9534;51.140;6.296;2023-04-01T05:11:38;98532.59;;;9.33;100.00
18813;BME280;9534;51.140;6.296;2023-04-01T05:15:41;98538.34;;;9.31;100.00
18813;BME280;9534;51.140;6.296;2023-04-01T05:19:45;98544.94;;;9.35;100.00
18813;BME280;9534;51.140;6.296;2023-04-01T05:23:50;98542.22;;;9.35;100.00
18813;BME280;9534;51.140;6.296;2023-04-01T05:27:53;98546.03;;;9.34;100.00
18813;BME280;9534;51.140;6.296;2023-04-01T05:31:57;98540.88;;;9.38;100.00
18813;BME280;9534;51.140;6.296;2023-04-01T05:36:06;98554.28;;;9.39;100.00
18813;BME280;9534;51.140;6.296;2023-04-01T05:40:11;98550.47;;;9.40;100.00
18813;BME280;9534;51.140;6.296;2023-04-01T05:44:14;98557.56;;;9.41;100.00
18813;BME280;9534;51.140;6.296;2023-04-01T05:48:17;98557.56;;;9.41;100.00
18813;BME280;9534;51.140;6.296;2023-04-01T05:52:21;98551.63;;;9.44;100.00
18813;BME280;9534;51.140;6.296;2023-04-01T05:56:25;98560.88;;;9.43;100.00
18813;BME280;9534;51.140;6.296;2023-04-01T06:00:29;98573.44;;;9.44;100.00
18813;BME280;9534;51.140;6.296;2023-04-01T06:04:37;98568.50;;;9.41;100.00
18813;BME280;9534;51.140;6.296;2023-04-01T06:08:41;98576.13;;;9.39;100.00
18813;BME280;9534;51.140;6.296;2023-04-01T06:12:56;98576.84;;;9.35;100.00
18813;BME280;9534;51.140;6.296;2023-04-01T06:17:20;98573.81;;;9.31;100.00
18813;BME280;9534;51.140;6.296;2023-04-01T06:21:37;98583.06;;;9.30;100.00
18813;BME280;9534;51.140;6.296;2023-04-01T06:26:11;98592.91;;;9.31;100.00
18813;BME280;9534;51.140;6.296;2023-04-01T06:30:40;98598.94;;;9.33;100.00
18813;BME280;9534;51.140;6.296;2023-04-01T06:39:30;98608.22;;;9.32;100.00
18813;BME280;9534;51.140;6.296;2023-04-01T06:43:45;98614.47;;;9.33;100.00
18813;BME280;9534;51.140;6.296;2023-04-01T06:48:02;98621.28;;;9.30;100.00
18813;BME280;9534;51.140;6.296;2023-04-01T06:52:50;98609.88;;;9.33;100.00
18813;BME280;9534;51.140;6.296;2023-04-01T06:57:29;98626.25;;;9.33;100.00
18813;BME280;9534;51.140;6.296;2023-04-01T07:01:37;98622.44;;;9.34;100.00
18813;BME280;9534;51.140;6.296;2023-04-01T07:05:43;98633.34;;;9.34;100.00
18813;BME280;9534;51.140;6.296;2023-04-01T07:09:50;98644.28;;;9.34;100.00
18813;BME280;9534;51.140;6.296;2023-04-01T07:14:26;98656.84;;;9.35;100.00
18813;BME280;9534;51.140;6.296;2023-04-01T07:18:37;98648.06;;;9.33;100.00
18813;BME280;9534;51.140;6.296;2023-04-01T07:22:44;98639.63;;;9.35;100.00
18813;BME280;9534;51.140;6.296;2023-04-01T07:27:00;98646.50;;;9.37;100.00
18813;BME280;9534;51.140;6.296;2023-04-01T07:31:14;98658.56;;;9.41;100.00
18813;BME280;9534;51.140;6.296;2023-04-01T07:35:24;98681.50;;;9.40;100.00
18813;BME280;9534;51.140;6.296;2023-04-01T07:39:38;98678.50;;;9.42;100.00
18813;BME280;9534;51.140;6.296;2023-04-01T07:43:59;98675.53;;;9.43;100.00
18813;BME280;9534;51.140;6.296;2023-04-01T07:48:19;98693.88;;;9.48;100.00
18813;BME280;9534;51.140;6.296;2023-04-01T07:52:33;98688.09;;;9.44;100.00
18813;BME280;9534;51.140;6.296;2023-04-01T07:56:53;98693.03;;;9.47;100.00
18813;BME280;9534;51.140;6.296;2023-04-01T08:01:15;98710.16;;;9.43;100.00
18813;BME280;9534;51.140;6.296;2023-04-01T08:05:26;98717.03;;;9.45;100.00
18813;BME280;9534;51.140;6.296;2023-04-01T08:09:40;98713.22;;;9.46;100.00
18813;BME280;9534;51.140;6.296;2023-04-01T08:14:13;98732.91;;;9.48;100.00
18813;BME280;9534;51.140;6.296;2023-04-01T08:18:44;98732.09;;;9.48;100.00
18813;BME280;9534;51.140;6.296;2023-04-01T08:22:51;98742.16;;;9.47;100.00
18813;BME280;9534;51.140;6.296;2023-04-01T08:27:06;98743.25;;;9.46;100.00
18813;BME280;9534;51.140;6.296;2023-04-01T08:31:19;98741.66;;;9.50;100.00
18813;BME280;9534;51.140;6.296;2023-04-01T08:35:29;98756.41;;;9.49;100.00
18813;BME280;9534;51.140;6.296;2023-04-01T08:39:38;98749.38;;;9.53;100.00
18813;BME280;9534;51.140;6.296;2023-04-01T08:44:07;98755.31;;;9.50;100.00
18813;BME280;9534;51.140;6.296;2023-04-01T08:48:25;98751.38;;;9.58;100.00
18813;BME280;9534;51.140;6.296;2023-04-01T08:52:34;98765.16;;;9.51;100.00
18813;BME280;9534;51.140;6.296;2023-04-01T08:56:41;98776.44;;;9.55;100.00
18813;BME280;9534;51.140;6.296;2023-04-01T09:00:57;98791.97;;;9.54;100.00
18813;BME280;9534;51.140;6.296;2023-04-01T09:10:00;98801.25;;;9.53;100.00
18813;BME280;9534;51.140;6.296;2023-04-01T09:14:26;98795.28;;;9.56;100.00
18813;BME280;9534;51.140;6.296;2023-04-01T09:19:24;98795.19;;;9.51;100.00
18813;BME280;9534;51.140;6.296;2023-04-01T09:23:51;98802.31;;;9.52;100.00
18813;BME280;9534;51.140;6.296;2023-04-01T09:28:06;98799.09;;;9.55;100.00
18813;BME280;9534;51.140;6.296;2023-04-01T09:32:25;98810.38;;;9.59;100.00
18813;BME280;9534;51.140;6.296;2023-04-01T09:36:45;98815.56;;;9.60;100.00
18813;BME280;9534;51.140;6.296;2023-04-01T09:40:57;98811.84;;;9.66;100.00
18813;BME280;9534;51.140;6.296;2023-04-01T09:45:37;98826.06;;;9.68;100.00
18813;BME280;9534;51.140;6.296;2023-04-01T09:50:06;98823.91;;;9.70;100.00
18813;BME280;9534;51.140;6.296;2023-04-01T09:54:26;98820.97;;;9.72;100.00
18813;BME280;9534;51.140;6.296;2023-04-01T09:58:54;98834.34;;;9.73;100.00
18813;BME280;9534;51.140;6.296;2023-04-01T10:04:17;98838.66;;;9.69;100.00
18813;BME280;9534;51.140;6.296;2023-04-01T10:13:32;98844.28;;;9.79;100.00
18813;BME280;9534;51.140;6.296;2023-04-01T10:22:49;98861.41;;;10.07;100.00
18813;BME280;9534;51.140;6.296;2023-04-01T10:27:08;98859.19;;;10.21;100.00
18813;BME280;9534;51.140;6.296;2023-04-01T10:31:55;98858.19;;;10.27;100.00
18813;BME280;9534;51.140;6.296;2023-04-01T10:36:34;98870.28;;;10.14;100.00
18813;BME280;9534;51.140;6.296;2023-04-01T10:41:11;98870.34;;;10.03;100.00
18813;BME280;9534;51.140;6.296;2023-04-01T10:50:50;98869.78;;;10.01;100.00
18813;BME280;9534;51.140;6.296;2023-04-01T11:14:52;98876.25;;;10.28;100.00
18813;BME280;9534;51.140;6.296;2023-04-01T11:19:26;98886.88;;;10.46;100.00
18813;BME280;9534;51.140;6.296;2023-04-01T11:23:43;98869.81;;;10.39;100.00
18813;BME280;9534;51.140;6.296;2023-04-01T11:28:25;98888.47;;;10.42;100.00
18813;BME280;9534;51.140;6.296;2023-04-01T11:32:40;98889.47;;;10.36;100.00
18813;BME280;9534;51.140;6.296;2023-04-01T11:36:55;98902.41;;;10.40;100.00
18813;BME280;9534;51.140;6.296;2023-04-01T11:41:17;98910.19;;;10.48;100.00
18813;BME280;9534;51.140;6.296;2023-04-01T11:45:46;98912.78;;;10.60;100.00
18813;BME280;9534;51.140;6.296;2023-04-01T11:50:04;98911.63;;;10.72;100.00
18813;BME280;9534;51.140;6.296;2023-04-01T11:54:31;98918.91;;;10.67;100.00
18813;BME280;9534;51.140;6.296;2023-04-01T11:58:54;98919.41;;;10.64;100.00
18813;BME280;9534;51.140;6.296;2023-04-01T12:03:15;98938.13;;;10.72;100.00
18813;BME280;9534;51.140;6.296;2023-04-01T12:07:45;98933.31;;;10.79;100.00
18813;BME280;9534;51.140;6.296;2023-04-01T12:12:06;98932.31;;;10.85;100.00
18813;BME280;9534;51.140;6.296;2023-04-01T12:16:39;98936.84;;;10.96;100.00
18813;BME280;9534;51.140;6.296;2023-04-01T12:20:50;98940.00;;;10.88;100.00
18813;BME280;9534;51.140;6.296;2023-04-01T12:25:04;98947.50;;;10.76;100.00
18813;BME280;9534;51.140;6.296;2023-04-01T12:29:41;98960.88;;;10.56;100.00
18813;BME280;9534;51.140;6.296;2023-04-01T12:33:58;98966.75;;;10.48;100.00
18813;BME280;9534;51.140;6.296;2023-04-01T12:38:19;98964.53;;;10.45;100.00
18813;BME280;9534;51.140;6.296;2023-04-01T12:42:42;98983.94;;;10.43;100.00
18813;BME280;9534;51.140;6.296;2023-04-01T12:47:00;98984.44;;;10.40;100.00
18813;BME280;9534;51.140;6.296;2023-04-01T12:51:39;98976.47;;;10.39;100.00
18813;BME280;9534;51.140;6.296;2023-04-01T12:55:45;98988.63;;;10.48;100.00
18813;BME280;9534;51.140;6.296;2023-04-01T13:00:03;99003.81;;;10.55;100.00
18813;BME280;9534;51.140;6.296;2023-04-01T13:04:38;99014.91;;;10.49;100.00
18813;BME280;9534;51.140;6.296;2023-04-01T13:08:51;99014.59;;;10.45;100.00
18813;BME280;9534;51.140;6.296;2023-04-01T13:13:12;99015.91;;;10.43;100.00
18813;BME280;9534;51.140;6.296;2023-04-01T13:17:25;99019.03;;;10.35;100.00
18813;BME280;9534;51.140;6.296;2023-04-01T13:21:42;99016.25;;;10.30;100.00
18813;BME280;9534;51.140;6.296;2023-04-01T13:25:51;99037.03;;;10.31;100.00
18813;BME280;9534;51.140;6.296;2023-04-01T13:30:24;99033.78;;;10.34;100.00
18813;BME280;9534;51.140;6.296;2023-04-01T13:34:39;99042.09;;;10.39;100.00
18813;BME280;9534;51.140;6.296;2023-04-01T13:43:23;99032.91;;;10.61;100.00
18813;BME280;9534;51.140;6.296;2023-04-01T13:52:39;99037.31;;;10.62;100.00
18813;BME280;9534;51.140;6.296;2023-04-01T13:56:57;99046.91;;;10.48;100.00
18813;BME280;9534;51.140;6.296;2023-04-01T14:01:10;99053.50;;;10.36;100.00
18813;BME280;9534;51.140;6.296;2023-04-01T14:05:47;99058.50;;;10.39;100.00
18813;BME280;9534;51.140;6.296;2023-04-01T14:10:07;99067.78;;;10.38;100.00
18813;BME280;9534;51.140;6.296;2023-04-01T14:14:23;99075.72;;;10.23;100.00
18813;BME280;9534;51.140;6.296;2023-04-01T14:18:52;99075.13;;;10.21;100.00
18813;BME280;9534;51.140;6.296;2023-04-01T14:23:37;99088.81;;;10.21;100.00
18813;BME280;9534;51.140;6.296;2023-04-01T14:27:54;99082.97;;;10.17;100.00
18813;BME280;9534;51.140;6.296;2023-04-01T14:32:09;99099.97;;;10.19;100.00
18813;BME280;9534;51.140;6.296;2023-04-01T14:36:33;99093.09;;;10.17;100.00
18813;BME280;9534;51.140;6.296;2023-04-01T14:40:50;99095.47;;;10.13;100.00
18813;BME280;9534;51.140;6.296;2023-04-01T14:45:20;99105.59;;;10.13;100.00
18813;BME280;9534;51.140;6.296;2023-04-01T14:49:34;99109.81;;;10.20;100.00
18813;BME280;9534;51.140;6.296;2023-04-01T14:53:43;99113.63;;;10.19;100.00
18813;BME280;9534;51.140;6.296;2023-04-01T14:57:58;99132.66;;;10.14;100.00
18813;BME280;9534;51.140;6.296;2023-04-01T15:02:11;99136.47;;;10.13;100.00
18813;BME280;9534;51.140;6.296;2023-04-01T15:06:39;99137.31;;;10.14;100.00
18813;BME280;9534;51.140;6.296;2023-04-01T15:15:31;99148.75;;;10.11;100.00
18813;BME280;9534;51.140;6.296;2023-04-01T15:19:54;99153.00;;;10.07;100.00
18813;BME280;9534;51.140;6.296;2023-04-01T15:24:06;99164.91;;;10.01;100.00
18813;BME280;9534;51.140;6.296;2023-04-01T15:28:23;99169.53;;;10.00;100.00
18813;BME280;9534;51.140;6.296;2023-04-01T15:32:43;99170.38;;;10.01;100.00
18813;BME280;9534;51.140;6.296;2023-04-01T15:36:55;99165.97;;;10.00;100.00
18813;BME280;9534;51.140;6.296;2023-04-01T15:41:07;99176.31;;;9.98;100.00
18813;BME280;9534;51.140;6.296;2023-04-01T15:45:27;99178.78;;;9.99;100.00
18813;BME280;9534;51.140;6.296;2023-04-01T15:49:40;99189.13;;;9.97;100.00
18813;BME280;9534;51.140;6.296;2023-04-01T15:54:12;99184.41;;;9.93;100.00
18813;BME280;9534;51.140;6.296;2023-04-01T15:58:43;99193.19;;;9.95;100.00
18813;BME280;9534;51.140;6.296;2023-04-01T16:02:54;99205.19;;;9.94;100.00
18813;BME280;9534;51.140;6.296;2023-04-01T16:07:10;99208.75;;;9.94;100.00
18813;BME280;9534;51.140;6.296;2023-04-01T16:11:25;99206.25;;;9.93;100.00
18813;BME280;9534;51.140;6.296;2023-04-01T16:15:42;99211.13;;;9.91;100.00
18813;BME280;9534;51.140;6.296;2023-04-01T16:19:51;99217.66;;;9.90;100.00
18813;BME280;9534;51.140;6.296;2023-04-01T16:23:58;99227.41;;;9.86;100.00
18813;BME280;9534;51.140;6.296;2023-04-01T16:28:19;99228.25;;;9.86;100.00
18813;BME280;9534;51.140;6.296;2023-04-01T16:32:37;99238.81;;;9.83;100.00
18813;BME280;9534;51.140;6.296;2023-04-01T16:36:45;99227.31;;;9.81;100.00
18813;BME280;9534;51.140;6.296;2023-04-01T16:41:00;99234.22;;;9.83;100.00
18813;BME280;9534;51.140;6.296;2023-04-01T16:45:19;99246.44;;;9.81;100.00
18813;BME280;9534;51.140;6.296;2023-04-01T16:49:32;99264.97;;;9.79;100.00
18813;BME280;9534;51.140;6.296;2023-04-01T16:53:41;99261.03;;;9.75;100.00
18813;BME280;9534;51.140;6.296;2023-04-01T16:57:49;99266.50;;;9.75;100.00
18813;BME280;9534;51.140;6.296;2023-04-01T17:01:55;99272.34;;;9.79;100.00
18813;BME280;9534;51.140;6.296;2023-04-01T17:06:19;99285.63;;;9.75;100.00
18813;BME280;9534;51.140;6.296;2023-04-01T17:10:36;99284.81;;;9.75;100.00
18813;BME280;9534;51.140;6.296;2023-04-01T17:14:50;99287.75;;;9.73;100.00
18813;BME280;9534;51.140;6.296;2023-04-01T17:19:03;99294.75;;;9.69;100.00
18813;BME280;9534;51.140;6.296;2023-04-01T17:23:18;99288.38;;;9.64;100.00
18813;BME280;9534;51.140;6.296;2023-04-01T17:27:34;99304.38;;;9.60;100.00
18813;BME280;9534;51.140;6.296;2023-04-01T17:31:46;99306.50;;;9.58;100.00
18813;BME280;9534;51.140;6.296;2023-04-01T17:35:58;99314.94;;;9.57;100.00
18813;BME280;9534;51.140;6.296;2023-04-01T17:40:20;99321.47;;;9.56;100.00
18813;BME280;9534;51.140;6.296;2023-04-01T17:44:38;99329.16;;;9.47;100.00
18813;BME280;9534;51.140;6.296;2023-04-01T17:48:55;99328.56;;;9.45;100.00
18813;BME280;9534;51.140;6.296;2023-04-01T17:53:11;99352.44;;;9.38;100.00
18813;BME280;9534;51.140;6.296;2023-04-01T17:57:32;99348.06;;;9.37;100.00
18813;BME280;9534;51.140;6.296;2023-04-01T18:01:52;99355.16;;;9.38;100.00
18813;BME280;9534;51.140;6.296;2023-04-01T18:06:03;99356.44;;;9.36;100.00
18813;BME280;9534;51.140;6.296;2023-04-01T18:10:22;99356.91;;;9.33;100.00
18813;BME280;9534;51.140;6.296;2023-04-01T18:19:04;99367.84;;;9.33;100.00
18813;BME280;9534;51.140;6.296;2023-04-01T18:23:23;99370.34;;;9.34;100.00
18813;BME280;9534;51.140;6.296;2023-04-01T18:27:32;99375.81;;;9.34;100.00
18813;BME280;9534;51.140;6.296;2023-04-01T18:31:42;99384.34;;;9.38;100.00
18813;BME280;9534;51.140;6.296;2023-04-01T18:35:50;99385.41;;;9.37;100.00
18813;BME280;9534;51.140;6.296;2023-04-01T18:40:00;99396.13;;;9.38;100.00
18813;BME280;9534;51.140;6.296;2023-04-01T18:44:23;99408.72;;;9.39;100.00
18813;BME280;9534;51.140;6.296;2023-04-01T18:48:46;99421.50;;;9.39;100.00
18813;BME280;9534;51.140;6.296;2023-04-01T18:52:57;99418.88;;;9.32;100.00
18813;BME280;9534;51.140;6.296;2023-04-01T18:57:04;99424.34;;;9.32;100.00
18813;BME280;9534;51.140;6.296;2023-04-01T19:01:15;99432.16;;;9.29;100.00
18813;BME280;9534;51.140;6.296;2023-04-01T19:05:23;99422.16;;;9.23;100.00
18813;BME280;9534;51.140;6.296;2023-04-01T19:09:29;99438.53;;;9.23;100.00
18813;BME280;9534;51.140;6.296;2023-04-01T19:13:35;99446.13;;;9.21;100.00
18813;BME280;9534;51.140;6.296;2023-04-01T19:17:45;99450.75;;;9.20;100.00
18813;BME280;9534;51.140;6.296;2023-04-01T19:21:54;99451.81;;;9.19;100.00
18813;BME280;9534;51.140;6.296;2023-04-01T19:25:58;99452.88;;;9.18;100.00
18813;BME280;9534;51.140;6.296;2023-04-01T19:34:47;99457.50;;;9.18;100.00
18813;BME280;9534;51.140;6.296;2023-04-01T19:39:00;99457.28;;;9.19;100.00
18813;BME280;9534;51.140;6.296;2023-04-01T19:43:17;99464.63;;;9.19;100.00
18813;BME280;9534;51.140;6.296;2023-04-01T19:47:37;99470.94;;;9.19;100.00
18813;BME280;9534;51.140;6.296;2023-04-01T19:51:49;99469.88;;;9.20;100.00
18813;BME280;9534;51.140;6.296;2023-04-01T19:56:00;99481.25;;;9.17;100.00
18813;BME280;9534;51.140;6.296;2023-04-01T20:00:15;99480.19;;;9.18;100.00
18813;BME280;9534;51.140;6.296;2023-04-01T20:04:28;99483.38;;;9.15;100.00
18813;BME280;9534;51.140;6.296;2023-04-01T20:08:36;99488.38;;;9.18;100.00
18813;BME280;9534;51.140;6.296;2023-04-01T20:12:48;99488.38;;;9.18;100.00
18813;BME280;9534;51.140;6.296;2023-04-01T20:17:16;99503.69;;;9.19;100.00
18813;BME280;9534;51.140;6.296;2023-04-01T20:21:30;99503.06;;;9.17;100.00
18813;BME280;9534;51.140;6.296;2023-04-01T20:25:40;99523.53;;;9.26;100.00
18813;BME280;9534;51.140;6.296;2023-04-01T20:29:56;99525.66;;;9.24;100.00
18813;BME280;9534;51.140;6.296;2023-04-01T20:34:15;99546.75;;;9.35;100.00
18813;BME280;9534;51.140;6.296;2023-04-01T20:38:58;99547.09;;;9.39;100.00
18813;BME280;9534;51.140;6.296;2023-04-01T20:43:33;99557.34;;;9.43;100.00
18813;BME280;9534;51.140;6.296;2023-04-01T20:47:57;99555.69;;;9.42;100.00
18813;BME280;9534;51.140;6.296;2023-04-01T20:52:18;99570.59;;;9.40;100.00
18813;BME280;9534;51.140;6.296;2023-04-01T20:56:37;99579.88;;;9.39;100.00
18813;BME280;9534;51.140;6.296;2023-04-01T21:00:53;99585.78;;;9.36;100.00
18813;BME280;9534;51.140;6.296;2023-04-01T21:05:35;99594.66;;;9.31;100.00
18813;BME280;9534;51.140;6.296;2023-04-01T21:09:55;99598.66;;;9.29;100.00
18813;BME280;9534;51.140;6.296;2023-04-01T21:18:50;99609.06;;;9.20;100.00
18813;BME280;9534;51.140;6.296;2023-04-01T21:23:23;99620.88;;;9.14;100.00
18813;BME280;9534;51.140;6.296;2023-04-01T21:27:42;99631.03;;;9.07;100.00
18813;BME280;9534;51.140;6.296;2023-04-01T21:32:00;99637.84;;;8.98;100.00
18813;BME280;9534;51.140;6.296;2023-04-01T21:36:20;99655.09;;;8.92;100.00
18813;BME280;9534;51.140;6.296;2023-04-01T21:41:02;99662.06;;;8.88;100.00
18813;BME280;9534;51.140;6.296;2023-04-01T21:45:17;99661.88;;;8.83;100.00
18813;BME280;9534;51.140;6.296;2023-04-01T21:49:35;99672.78;;;8.83;100.00
18813;BME280;9534;51.140;6.296;2023-04-01T21:54:11;99685.38;;;8.84;100.00
18813;BME280;9534;51.140;6.296;2023-04-01T21:58:44;99689.16;;;8.83;100.00
18813;BME280;9534;51.140;6.296;2023-04-01T22:03:09;99698.03;;;8.79;100.00
18813;BME280;9534;51.140;6.296;2023-04-01T22:07:32;99707.47;;;8.76;100.00
18813;BME280;9534;51.140;6.296;2023-04-01T22:11:47;99713.63;;;8.65;100.00
18813;BME280;9534;51.140;6.296;2023-04-01T22:16:04;99727.50;;;8.64;100.00
18813;BME280;9534;51.140;6.296;2023-04-01T22:20:20;99728.00;;;8.55;100.00
18813;BME280;9534;51.140;6.296;2023-04-01T22:24:33;99730.13;;;8.46;100.00
18813;BME280;9534;51.140;6.296;2023-04-01T22:28:44;99748.81;;;8.43;100.00
18813;BME280;9534;51.140;6.296;2023-04-01T22:32:56;99752.00;;;8.40;100.00
18813;BME280;9534;51.140;6.296;2023-04-01T22:37:11;99760.59;;;8.37;100.00
18813;BME280;9534;51.140;6.296;2023-04-01T22:41:26;99764.19;;;8.31;100.00
18813;BME280;9534;51.140;6.296;2023-04-01T22:45:52;99758.75;;;8.18;100.00
18813;BME280;9534;51.140;6.296;2023-04-01T22:50:04;99778.50;;;8.13;100.00
18813;BME280;9534;51.140;6.296;2023-04-01T22:54:17;99775.16;;;8.05;100.00
18813;BME280;9534;51.140;6.296;2023-04-01T22:58:28;99785.25;;;7.98;100.00
18813;BME280;9534;51.140;6.296;2023-04-01T23:02:36;99786.09;;;7.92;100.00
18813;BME280;9534;51.140;6.296;2023-04-01T23:06:44;99805.16;;;7.92;100.00
18813;BME280;9534;51.140;6.296;2023-04-01T23:10:51;99810.84;;;7.84;100.00
18813;BME280;9534;51.140;6.296;2023-04-01T23:14:58;99816.06;;;7.79;100.00
18813;BME280;9534;51.140;6.296;2023-04-01T23:19:10;99821.94;;;7.76;100.00
18813;BME280;9534;51.140;6.296;2023-04-01T23:23:24;99833.47;;;7.78;100.00
18813;BME280;9534;51.140;6.296;2023-04-01T23:27:34;99840.59;;;7.79;100.00
18813;BME280;9534;51.140;6.296;2023-04-01T23:31:39;99853.19;;;7.73;100.00
18813;BME280;9534;51.140;6.296;2023-04-01T23:35:46;99864.50;;;7.70;100.00
18813;BME280;9534;51.140;6.296;2023-04-01T23:39:53;99873.31;;;7.66;100.00
18813;BME280;9534;51.140;6.296;2023-04-01T23:44:01;99880.84;;;7.64;100.00
18813;BME280;9534;51.140;6.296;2023-04-01T23:48:05;99892.16;;;7.61;100.00
18813;BME280;9534;51.140;6.296;2023-04-01T23:52:13;99898.84;;;7.58;100.00
18813;BME280;9534;51.140;6.296;2023-04-01T23:56:18;99903.44;;;7.51;100.00
